createdAt,value
2022-11-25T06:50:02.082Z,6.00
2022-11-25T06:53:04.042Z,6.57
2022-11-25T06:56:10.728Z,8.40
2022-11-25T06:59:12.713Z,11.30
2022-11-25T07:02:14.938Z,7.18
2022-11-25T07:05:18.063Z,8.02
2022-11-25T07:08:19.825Z,7.60
2022-11-25T07:11:24.173Z,7.28
2022-11-25T07:14:26.817Z,8.48
2022-11-25T07:17:29.270Z,8.77
2022-11-25T07:20:32.940Z,7.30
2022-11-25T07:23:37.454Z,7.35
2022-11-25T07:26:42.578Z,7.18
2022-11-25T07:30:00.740Z,7.57
2022-11-25T07:33:06.303Z,7.28
2022-11-25T07:36:10.210Z,6.78
2022-11-25T07:39:15.588Z,6.93
2022-11-25T07:42:17.365Z,12.05
2022-11-25T07:45:21.025Z,13.82
2022-11-25T07:48:23.687Z,5.25
2022-11-25T07:51:29.954Z,2.47
2022-11-25T07:54:33.123Z,2.90
2022-11-25T07:57:34.909Z,2.35
2022-11-25T08:00:37.029Z,1.95
2022-11-25T08:03:41.912Z,1.83
2022-11-25T08:06:46.937Z,1.95
2022-11-25T08:09:48.779Z,1.77
2022-11-25T08:12:50.615Z,2.13
2022-11-25T08:15:52.760Z,1.83
2022-11-25T08:18:55.860Z,3.28
2022-11-25T08:21:57.629Z,5.18
2022-11-25T08:24:59.444Z,4.45
2022-11-25T08:28:01.459Z,4.80
2022-11-25T08:31:06.580Z,4.88
2022-11-25T08:37:11.645Z,5.18
2022-11-25T08:40:13.697Z,6.10
2022-11-25T08:43:15.592Z,5.85
2022-11-25T08:46:20.851Z,7.00
2022-11-25T08:49:26.711Z,9.73
2022-11-25T08:52:29.214Z,5.72
2022-11-25T08:55:32.746Z,5.15
2022-11-25T08:58:35.575Z,5.07
2022-11-25T09:01:37.761Z,9.80
2022-11-25T09:04:39.557Z,5.82
2022-11-25T09:07:43.041Z,6.53
2022-11-25T09:10:46.371Z,6.07
2022-11-25T09:13:48.740Z,6.13
2022-11-25T09:16:51.121Z,5.60
2022-11-25T09:19:54.079Z,2.00
2022-11-25T09:22:56.032Z,2.17
2022-11-25T09:26:00.365Z,4.57
2022-11-25T09:29:03.923Z,4.50
2022-11-25T09:32:07.172Z,5.47
2022-11-25T09:35:09.809Z,5.50
2022-11-25T09:38:11.887Z,4.00
2022-11-25T09:42:13.687Z,3.97
2022-11-25T09:45:40.486Z,4.70
2022-11-25T09:49:20.663Z,4.80
2022-11-25T09:52:50.897Z,4.90
2022-11-25T09:56:01.600Z,4.80
2022-11-25T09:59:34.692Z,4.45
2022-11-25T10:03:00.366Z,6.10
2022-11-25T10:06:10.616Z,6.78
2022-11-25T10:09:15.812Z,7.25
2022-11-25T10:15:27.977Z,6.78
2022-11-25T10:18:40.060Z,5.95
2022-11-25T10:21:42.524Z,9.15
2022-11-25T10:24:44.818Z,6.03
2022-11-25T10:28:05.528Z,6.85
2022-11-25T10:31:32.636Z,6.20
2022-11-25T10:34:42.203Z,6.57
2022-11-25T10:37:47.276Z,6.13
2022-11-25T10:43:53.389Z,4.80
2022-11-25T10:47:26.026Z,4.65
2022-11-25T10:50:55.016Z,4.18
2022-11-25T10:54:27.317Z,3.33
2022-11-25T10:57:30.052Z,4.13
2022-11-25T11:00:35.451Z,3.15
2022-11-25T11:03:37.547Z,2.70
2022-11-25T11:06:42.583Z,2.55
2022-11-25T11:09:46.199Z,2.65
2022-11-25T11:13:00.019Z,2.90
2022-11-25T11:16:02.032Z,2.90
2022-11-25T11:19:05.575Z,3.55
2022-11-25T11:22:17.811Z,3.78
2022-11-25T11:25:21.219Z,3.30
2022-11-25T11:28:29.292Z,4.55
2022-11-25T11:31:39.099Z,3.85
2022-11-25T11:34:54.500Z,3.95
2022-11-25T11:38:07.658Z,4.70
2022-11-25T11:41:39.492Z,3.30
2022-11-25T11:45:21.441Z,3.65
2022-11-25T11:48:53.392Z,2.70
2022-11-25T11:52:08.608Z,3.25
2022-11-25T11:55:33.508Z,3.05
2022-11-25T11:58:49.618Z,3.10
2022-11-25T12:02:22.270Z,3.25
2022-11-25T12:05:28.630Z,3.00
2022-11-25T12:08:45.685Z,2.95
2022-11-25T12:11:54.666Z,2.97
2022-11-25T12:15:05.825Z,3.60
2022-11-25T12:18:26.907Z,3.25
2022-11-25T12:21:45.536Z,3.40
2022-11-25T12:24:57.147Z,3.70
2022-11-25T12:28:20.853Z,4.10
2022-11-25T12:31:27.686Z,3.83
2022-11-25T12:34:46.181Z,4.07
2022-11-25T12:38:05.499Z,3.85
2022-11-25T12:41:28.400Z,3.90
2022-11-25T12:44:58.368Z,3.60
2022-11-25T12:48:00.354Z,4.03
2022-11-25T12:51:13.255Z,3.30
2022-11-25T12:54:36.299Z,2.95
2022-11-25T12:58:01.486Z,4.55
2022-11-25T13:01:44.254Z,3.03
2022-11-25T13:05:39.693Z,3.42
2022-11-25T13:09:20.558Z,3.50
2022-11-25T13:12:54.010Z,3.78
2022-11-25T13:15:59.023Z,3.45
2022-11-25T13:19:00.910Z,3.67
2022-11-25T13:22:06.380Z,4.38
2022-11-25T13:25:24.859Z,4.30
2022-11-25T13:28:34.909Z,3.15
2022-11-25T13:32:01.907Z,4.00
2022-11-25T13:35:24.685Z,3.47
2022-11-25T13:38:29.733Z,3.25
2022-11-25T13:41:42.055Z,3.15
2022-11-25T13:44:54.807Z,3.58
2022-11-25T13:48:06.350Z,3.20
2022-11-25T13:51:24.584Z,3.75
2022-11-25T13:54:34.344Z,3.85
2022-11-25T13:57:39.590Z,3.25
2022-11-25T14:03:47.682Z,3.47
2022-11-25T14:07:17.035Z,3.80
2022-11-25T14:10:39.527Z,3.45
2022-11-25T14:14:09.357Z,4.40
2022-11-25T14:17:50.875Z,3.80
2022-11-25T14:21:06.358Z,4.80
2022-11-25T14:24:37.478Z,4.57
2022-11-25T14:27:44.752Z,3.25
2022-11-25T14:30:53.760Z,4.55
2022-11-25T14:34:01.333Z,3.50
2022-11-25T14:37:29.600Z,3.22
2022-11-25T14:40:40.738Z,3.72
2022-11-25T14:43:48.583Z,2.97
2022-11-25T14:46:54.585Z,3.97
2022-11-25T14:50:26.674Z,3.45
2022-11-25T14:53:21.700Z,3.08
2022-11-25T14:56:27.484Z,3.33
2022-11-25T14:59:29.252Z,3.60
2022-11-25T15:02:34.949Z,4.18
2022-11-25T15:05:39.495Z,3.35
2022-11-25T15:08:44.690Z,3.38
2022-11-25T15:14:51.929Z,3.58
2022-11-25T15:17:55.301Z,2.80
2022-11-25T15:20:59.794Z,3.13
2022-11-25T15:24:03.505Z,3.72
2022-11-25T15:27:17.822Z,4.07
2022-11-25T15:30:22.037Z,3.72
2022-11-25T15:33:25.909Z,3.67
2022-11-25T15:36:28.360Z,4.68
2022-11-25T15:39:30.758Z,4.43
2022-11-25T15:42:33.664Z,4.78
2022-11-25T15:45:46.825Z,4.55
2022-11-25T15:48:51.884Z,4.35
2022-11-25T15:52:07.044Z,4.07
2022-11-25T15:55:31.252Z,4.65
2022-11-25T15:58:33.182Z,4.82
2022-11-25T16:01:35.274Z,3.90
2022-11-25T16:04:37.007Z,4.03
2022-11-25T16:07:57.392Z,3.95
2022-11-25T16:11:10.693Z,4.15
2022-11-25T16:14:27.412Z,3.78
2022-11-25T16:17:29.083Z,3.47
2022-11-25T16:20:30.804Z,4.55
2022-11-25T16:23:36.716Z,3.90
2022-11-25T16:26:56.630Z,4.82
2022-11-25T16:30:16.764Z,4.53
2022-11-25T16:33:18.431Z,3.95
2022-11-25T16:36:20.113Z,4.57
2022-11-25T16:39:21.798Z,4.05
2022-11-25T16:42:23.566Z,5.07
2022-11-25T16:45:27.379Z,3.92
2022-11-25T16:48:29.585Z,4.90
2022-11-25T16:51:31.220Z,5.50
2022-11-25T16:54:33.971Z,5.72
2022-11-25T16:57:36.367Z,6.45
